sensor_id;sensor_type;location;lat;lon;timestamp;P1;durP1;ratioP1;P2;durP2;ratioP2
13269;SDS011;6703;51.994;7.570;2023-09-18T00:01:10;19.67;;;6.07;;
13269;SDS011;6703;51.994;7.570;2023-09-18T00:03:37;11.25;;;6.13;;
13269;SDS011;6703;51.994;7.570;2023-09-18T00:06:05;13.57;;;6.85;;
13269;SDS011;6703;51.994;7.570;2023-09-18T00:08:35;13.32;;;6.72;;
13269;SDS011;6703;51.994;7.570;2023-09-18T00:11:03;13.47;;;6.80;;
13269;SDS011;6703;51.994;7.570;2023-09-18T00:13:31;14.05;;;6.22;;
13269;SDS011;6703;51.994;7.570;2023-09-18T00:15:58;11.98;;;6.22;;
13269;SDS011;6703;51.994;7.570;2023-09-18T00:18:29;13.25;;;7.03;;
13269;SDS011;6703;51.994;7.570;2023-09-18T00:20:56;13.02;;;6.75;;
13269;SDS011;6703;51.994;7.570;2023-09-18T00:23:25;15.73;;;7.53;;
13269;SDS011;6703;51.994;7.570;2023-09-18T00:25:52;15.85;;;7.68;;
13269;SDS011;6703;51.994;7.570;2023-09-18T00:28:20;16.23;;;7.32;;
13269;SDS011;6703;51.994;7.570;2023-09-18T00:30:48;12.38;;;6.78;;
13269;SDS011;6703;51.994;7.570;2023-09-18T00:33:17;12.50;;;6.32;;
13269;SDS011;6703;51.994;7.570;2023-09-18T00:35:48;15.35;;;6.80;;
13269;SDS011;6703;51.994;7.570;2023-09-18T00:38:17;13.60;;;7.18;;
13269;SDS011;6703;51.994;7.570;2023-09-18T00:40:45;17.83;;;6.75;;
13269;SDS011;6703;51.994;7.570;2023-09-18T00:43:13;10.98;;;6.30;;
13269;SDS011;6703;51.994;7.570;2023-09-18T00:45:42;15.82;;;7.05;;
13269;SDS011;6703;51.994;7.570;2023-09-18T00:48:11;14.13;;;6.30;;
13269;SDS011;6703;51.994;7.570;2023-09-18T00:50:39;17.38;;;6.93;;
13269;SDS011;6703;51.994;7.570;2023-09-18T00:53:09;14.45;;;6.85;;
13269;SDS011;6703;51.994;7.570;2023-09-18T00:55:38;14.30;;;6.43;;
13269;SDS011;6703;51.994;7.570;2023-09-18T00:58:06;12.98;;;6.22;;
13269;SDS011;6703;51.994;7.570;2023-09-18T01:00:34;14.15;;;6.13;;
13269;SDS011;6703;51.994;7.570;2023-09-18T01:03:02;10.57;;;5.80;;
13269;SDS011;6703;51.994;7.570;2023-09-18T01:05:31;13.53;;;5.97;;
13269;SDS011;6703;51.994;7.570;2023-09-18T01:07:59;14.85;;;6.82;;
13269;SDS011;6703;51.994;7.570;2023-09-18T01:10:30;14.30;;;6.95;;
13269;SDS011;6703;51.994;7.570;2023-09-18T01:13:04;12.98;;;6.97;;
13269;SDS011;6703;51.994;7.570;2023-09-18T01:15:33;17.17;;;6.43;;
13269;SDS011;6703;51.994;7.570;2023-09-18T01:18:04;13.82;;;6.32;;
13269;SDS011;6703;51.994;7.570;2023-09-18T01:20:32;12.95;;;6.43;;
13269;SDS011;6703;51.994;7.570;2023-09-18T01:23:01;14.95;;;6.30;;
13269;SDS011;6703;51.994;7.570;2023-09-18T01:25:30;14.95;;;6.57;;
13269;SDS011;6703;51.994;7.570;2023-09-18T01:27:58;18.48;;;7.93;;
13269;SDS011;6703;51.994;7.570;2023-09-18T01:30:26;18.05;;;7.68;;
13269;SDS011;6703;51.994;7.570;2023-09-18T01:32:54;15.63;;;6.95;;
13269;SDS011;6703;51.994;7.570;2023-09-18T01:35:23;15.77;;;7.10;;
13269;SDS011;6703;51.994;7.570;2023-09-18T01:37:56;15.85;;;6.93;;
13269;SDS011;6703;51.994;7.570;2023-09-18T01:40:25;12.88;;;6.45;;
13269;SDS011;6703;51.994;7.570;2023-09-18T01:42:53;12.85;;;6.40;;
13269;SDS011;6703;51.994;7.570;2023-09-18T01:45:21;14.77;;;6.50;;
13269;SDS011;6703;51.994;7.570;2023-09-18T01:47:49;17.05;;;6.72;;
13269;SDS011;6703;51.994;7.570;2023-09-18T01:50:17;13.27;;;6.43;;
13269;SDS011;6703;51.994;7.570;2023-09-18T01:52:45;14.25;;;6.55;;
13269;SDS011;6703;51.994;7.570;2023-09-18T01:55:12;15.07;;;6.53;;
13269;SDS011;6703;51.994;7.570;2023-09-18T01:57:41;12.60;;;6.60;;
13269;SDS011;6703;51.994;7.570;2023-09-18T02:00:10;13.77;;;6.68;;
13269;SDS011;6703;51.994;7.570;2023-09-18T02:02:40;16.35;;;7.18;;
13269;SDS011;6703;51.994;7.570;2023-09-18T02:05:28;14.75;;;6.93;;
13269;SDS011;6703;51.994;7.570;2023-09-18T02:07:56;15.18;;;6.97;;
13269;SDS011;6703;51.994;7.570;2023-09-18T02:10:24;13.60;;;6.55;;
13269;SDS011;6703;51.994;7.570;2023-09-18T02:12:53;11.15;;;5.90;;
13269;SDS011;6703;51.994;7.570;2023-09-18T02:15:21;12.65;;;6.30;;
13269;SDS011;6703;51.994;7.570;2023-09-18T02:17:48;10.43;;;5.90;;
13269;SDS011;6703;51.994;7.570;2023-09-18T02:20:16;10.15;;;6.05;;
13269;SDS011;6703;51.994;7.570;2023-09-18T02:22:46;10.98;;;5.88;;
13269;SDS011;6703;51.994;7.570;2023-09-18T02:25:14;11.10;;;6.25;;
13269;SDS011;6703;51.994;7.570;2023-09-18T02:27:42;11.52;;;6.15;;
13269;SDS011;6703;51.994;7.570;2023-09-18T02:30:12;13.00;;;6.00;;
13269;SDS011;6703;51.994;7.570;2023-09-18T02:32:40;11.35;;;6.35;;
13269;SDS011;6703;51.994;7.570;2023-09-18T02:35:08;13.55;;;6.00;;
13269;SDS011;6703;51.994;7.570;2023-09-18T02:37:36;14.23;;;5.97;;
13269;SDS011;6703;51.994;7.570;2023-09-18T02:40:04;12.98;;;6.68;;
13269;SDS011;6703;51.994;7.570;2023-09-18T02:42:34;14.13;;;6.43;;
13269;SDS011;6703;51.994;7.570;2023-09-18T02:45:02;16.60;;;6.93;;
13269;SDS011;6703;51.994;7.570;2023-09-18T02:47:31;17.70;;;7.13;;
13269;SDS011;6703;51.994;7.570;2023-09-18T02:50:00;18.33;;;8.07;;
13269;SDS011;6703;51.994;7.570;2023-09-18T02:52:28;17.17;;;7.25;;
13269;SDS011;6703;51.994;7.570;2023-09-18T02:54:56;14.95;;;7.10;;
13269;SDS011;6703;51.994;7.570;2023-09-18T02:57:24;15.80;;;7.97;;
13269;SDS011;6703;51.994;7.570;2023-09-18T02:59:51;13.15;;;7.63;;
13269;SDS011;6703;51.994;7.570;2023-09-18T03:02:19;17.07;;;8.00;;
13269;SDS011;6703;51.994;7.570;2023-09-18T03:04:49;17.27;;;7.78;;
13269;SDS011;6703;51.994;7.570;2023-09-18T03:07:16;20.23;;;8.13;;
13269;SDS011;6703;51.994;7.570;2023-09-18T03:09:44;18.33;;;7.37;;
13269;SDS011;6703;51.994;7.570;2023-09-18T03:12:12;19.92;;;8.10;;
13269;SDS011;6703;51.994;7.570;2023-09-18T03:14:40;18.15;;;8.40;;
13269;SDS011;6703;51.994;7.570;2023-09-18T03:17:08;19.95;;;8.20;;
13269;SDS011;6703;51.994;7.570;2023-09-18T03:19:36;18.87;;;7.87;;
13269;SDS011;6703;51.994;7.570;2023-09-18T03:22:05;15.60;;;7.35;;
13269;SDS011;6703;51.994;7.570;2023-09-18T03:24:33;18.83;;;8.55;;
13269;SDS011;6703;51.994;7.570;2023-09-18T03:27:01;21.92;;;7.57;;
13269;SDS011;6703;51.994;7.570;2023-09-18T03:29:29;19.80;;;8.32;;
13269;SDS011;6703;51.994;7.570;2023-09-18T03:31:57;18.00;;;7.45;;
13269;SDS011;6703;51.994;7.570;2023-09-18T03:34:25;12.93;;;6.93;;
13269;SDS011;6703;51.994;7.570;2023-09-18T03:36:54;21.13;;;7.47;;
13269;SDS011;6703;51.994;7.570;2023-09-18T03:39:23;16.52;;;7.10;;
13269;SDS011;6703;51.994;7.570;2023-09-18T03:41:50;15.85;;;7.18;;
13269;SDS011;6703;51.994;7.570;2023-09-18T03:44:18;14.77;;;7.63;;
13269;SDS011;6703;51.994;7.570;2023-09-18T03:46:47;18.73;;;6.97;;
13269;SDS011;6703;51.994;7.570;2023-09-18T03:49:15;20.95;;;8.07;;
13269;SDS011;6703;51.994;7.570;2023-09-18T03:51:42;15.23;;;8.40;;
13269;SDS011;6703;51.994;7.570;2023-09-18T03:54:11;17.98;;;7.88;;
13269;SDS011;6703;51.994;7.570;2023-09-18T03:56:40;14.82;;;7.75;;
13269;SDS011;6703;51.994;7.570;2023-09-18T03:59:08;16.50;;;7.07;;
13269;SDS011;6703;51.994;7.570;2023-09-18T04:01:35;16.33;;;7.50;;
13269;SDS011;6703;51.994;7.570;2023-09-18T04:04:03;13.55;;;7.35;;
13269;SDS011;6703;51.994;7.570;2023-09-18T04:06:40;14.57;;;7.30;;
13269;SDS011;6703;51.994;7.570;2023-09-18T04:09:08;14.43;;;6.88;;
13269;SDS011;6703;51.994;7.570;2023-09-18T04:11:36;13.63;;;6.90;;
13269;SDS011;6703;51.994;7.570;2023-09-18T04:14:06;12.07;;;6.60;;
13269;SDS011;6703;51.994;7.570;2023-09-18T04:16:33;14.60;;;6.40;;
13269;SDS011;6703;51.994;7.570;2023-09-18T04:19:03;13.93;;;6.50;;
13269;SDS011;6703;51.994;7.570;2023-09-18T04:21:31;16.00;;;6.20;;
13269;SDS011;6703;51.994;7.570;2023-09-18T04:23:59;14.07;;;6.15;;
13269;SDS011;6703;51.994;7.570;2023-09-18T04:26:27;19.45;;;6.40;;
13269;SDS011;6703;51.994;7.570;2023-09-18T04:28:57;13.25;;;6.00;;
13269;SDS011;6703;51.994;7.570;2023-09-18T04:31:27;13.48;;;5.80;;
13269;SDS011;6703;51.994;7.570;2023-09-18T04:33:55;15.30;;;6.10;;
13269;SDS011;6703;51.994;7.570;2023-09-18T04:36:22;10.35;;;5.65;;
13269;SDS011;6703;51.994;7.570;2023-09-18T04:38:51;11.13;;;5.57;;
13269;SDS011;6703;51.994;7.570;2023-09-18T04:41:19;13.02;;;5.68;;
13269;SDS011;6703;51.994;7.570;2023-09-18T04:43:47;13.65;;;5.25;;
13269;SDS011;6703;51.994;7.570;2023-09-18T04:46:15;11.23;;;5.70;;
13269;SDS011;6703;51.994;7.570;2023-09-18T04:48:45;12.32;;;5.70;;
13269;SDS011;6703;51.994;7.570;2023-09-18T04:51:13;12.93;;;6.05;;
13269;SDS011;6703;51.994;7.570;2023-09-18T04:53:41;14.98;;;5.68;;
13269;SDS011;6703;51.994;7.570;2023-09-18T04:56:09;13.23;;;5.15;;
13269;SDS011;6703;51.994;7.570;2023-09-18T04:58:37;17.65;;;6.47;;
13269;SDS011;6703;51.994;7.570;2023-09-18T05:01:05;13.35;;;5.68;;
13269;SDS011;6703;51.994;7.570;2023-09-18T05:03:33;14.00;;;5.60;;
13269;SDS011;6703;51.994;7.570;2023-09-18T05:06:03;9.50;;;4.78;;
13269;SDS011;6703;51.994;7.570;2023-09-18T05:08:31;10.27;;;5.60;;
13269;SDS011;6703;51.994;7.570;2023-09-18T05:10:59;9.70;;;4.90;;
13269;SDS011;6703;51.994;7.570;2023-09-18T05:13:28;12.43;;;5.80;;
13269;SDS011;6703;51.994;7.570;2023-09-18T05:15:55;17.33;;;5.60;;
13269;SDS011;6703;51.994;7.570;2023-09-18T05:18:24;11.65;;;5.63;;
13269;SDS011;6703;51.994;7.570;2023-09-18T05:20:52;13.20;;;5.35;;
13269;SDS011;6703;51.994;7.570;2023-09-18T05:23:21;11.23;;;5.45;;
13269;SDS011;6703;51.994;7.570;2023-09-18T05:25:49;9.43;;;5.60;;
13269;SDS011;6703;51.994;7.570;2023-09-18T05:28:17;13.25;;;5.47;;
13269;SDS011;6703;51.994;7.570;2023-09-18T05:30:45;14.52;;;5.45;;
13269;SDS011;6703;51.994;7.570;2023-09-18T05:33:13;15.23;;;5.47;;
13269;SDS011;6703;51.994;7.570;2023-09-18T05:35:42;12.00;;;5.28;;
13269;SDS011;6703;51.994;7.570;2023-09-18T05:38:11;11.02;;;5.20;;
13269;SDS011;6703;51.994;7.570;2023-09-18T05:40:41;11.93;;;5.47;;
13269;SDS011;6703;51.994;7.570;2023-09-18T05:43:09;16.48;;;5.68;;
13269;SDS011;6703;51.994;7.570;2023-09-18T05:45:38;12.20;;;5.28;;
13269;SDS011;6703;51.994;7.570;2023-09-18T05:48:06;14.07;;;5.28;;
13269;SDS011;6703;51.994;7.570;2023-09-18T05:50:35;12.43;;;5.13;;
13269;SDS011;6703;51.994;7.570;2023-09-18T05:53:03;16.10;;;4.88;;
13269;SDS011;6703;51.994;7.570;2023-09-18T05:55:32;12.98;;;4.78;;
13269;SDS011;6703;51.994;7.570;2023-09-18T05:58:02;13.57;;;4.93;;
13269;SDS011;6703;51.994;7.570;2023-09-18T06:00:33;10.95;;;4.88;;
13269;SDS011;6703;51.994;7.570;2023-09-18T06:03:01;13.82;;;4.78;;
13269;SDS011;6703;51.994;7.570;2023-09-18T06:05:29;9.15;;;4.43;;
13269;SDS011;6703;51.994;7.570;2023-09-18T06:08:00;13.20;;;4.78;;
13269;SDS011;6703;51.994;7.570;2023-09-18T06:10:28;17.87;;;5.20;;
13269;SDS011;6703;51.994;7.570;2023-09-18T06:13:18;11.30;;;4.05;;
13269;SDS011;6703;51.994;7.570;2023-09-18T06:15:46;13.20;;;4.43;;
13269;SDS011;6703;51.994;7.570;2023-09-18T06:18:14;14.83;;;4.97;;
13269;SDS011;6703;51.994;7.570;2023-09-18T06:20:42;13.50;;;4.40;;
13269;SDS011;6703;51.994;7.570;2023-09-18T06:23:11;9.13;;;3.83;;
13269;SDS011;6703;51.994;7.570;2023-09-18T06:25:51;10.95;;;3.95;;
13269;SDS011;6703;51.994;7.570;2023-09-18T06:28:24;11.98;;;4.05;;
13269;SDS011;6703;51.994;7.570;2023-09-18T06:30:51;17.00;;;4.72;;
13269;SDS011;6703;51.994;7.570;2023-09-18T06:33:20;17.67;;;4.95;;
13269;SDS011;6703;51.994;7.570;2023-09-18T06:35:48;10.77;;;4.07;;
13269;SDS011;6703;51.994;7.570;2023-09-18T06:38:18;13.50;;;3.93;;
13269;SDS011;6703;51.994;7.570;2023-09-18T06:41:04;10.85;;;3.88;;
13269;SDS011;6703;51.994;7.570;2023-09-18T06:43:34;10.52;;;3.70;;
13269;SDS011;6703;51.994;7.570;2023-09-18T06:46:01;11.45;;;3.63;;
13269;SDS011;6703;51.994;7.570;2023-09-18T06:48:30;15.55;;;4.50;;
13269;SDS011;6703;51.994;7.570;2023-09-18T06:50:58;12.25;;;3.85;;
13269;SDS011;6703;51.994;7.570;2023-09-18T06:53:27;13.00;;;3.90;;
13269;SDS011;6703;51.994;7.570;2023-09-18T06:55:55;11.77;;;4.30;;
13269;SDS011;6703;51.994;7.570;2023-09-18T06:58:23;10.90;;;3.43;;
13269;SDS011;6703;51.994;7.570;2023-09-18T07:00:52;12.93;;;3.30;;
13269;SDS011;6703;51.994;7.570;2023-09-18T07:03:20;8.85;;;3.20;;
13269;SDS011;6703;51.994;7.570;2023-09-18T07:05:50;11.27;;;3.47;;
13269;SDS011;6703;51.994;7.570;2023-09-18T07:08:17;15.25;;;3.47;;
13269;SDS011;6703;51.994;7.570;2023-09-18T07:10:49;15.13;;;3.17;;
13269;SDS011;6703;51.994;7.570;2023-09-18T07:13:17;11.90;;;3.55;;
13269;SDS011;6703;51.994;7.570;2023-09-18T07:15:45;15.33;;;3.53;;
13269;SDS011;6703;51.994;7.570;2023-09-18T07:18:15;9.77;;;2.95;;
13269;SDS011;6703;51.994;7.570;2023-09-18T07:20:46;13.23;;;3.00;;
13269;SDS011;6703;51.994;7.570;2023-09-18T07:23:14;13.85;;;3.35;;
13269;SDS011;6703;51.994;7.570;2023-09-18T07:25:42;13.43;;;2.97;;
13269;SDS011;6703;51.994;7.570;2023-09-18T07:28:10;10.35;;;3.95;;
13269;SDS011;6703;51.994;7.570;2023-09-18T07:30:43;9.90;;;2.95;;
13269;SDS011;6703;51.994;7.570;2023-09-18T07:33:11;11.97;;;2.80;;
13269;SDS011;6703;51.994;7.570;2023-09-18T07:35:40;18.75;;;2.90;;
13269;SDS011;6703;51.994;7.570;2023-09-18T07:38:09;14.93;;;3.47;;
13269;SDS011;6703;51.994;7.570;2023-09-18T07:40:37;10.43;;;3.00;;
13269;SDS011;6703;51.994;7.570;2023-09-18T07:43:14;8.57;;;3.10;;
13269;SDS011;6703;51.994;7.570;2023-09-18T07:45:42;9.90;;;2.95;;
13269;SDS011;6703;51.994;7.570;2023-09-18T07:48:10;13.05;;;3.70;;
13269;SDS011;6703;51.994;7.570;2023-09-18T07:50:37;15.77;;;2.50;;
13269;SDS011;6703;51.994;7.570;2023-09-18T07:53:06;11.40;;;3.00;;
13269;SDS011;6703;51.994;7.570;2023-09-18T07:55:34;9.80;;;2.42;;
13269;SDS011;6703;51.994;7.570;2023-09-18T07:58:03;10.80;;;2.70;;
13269;SDS011;6703;51.994;7.570;2023-09-18T08:00:31;11.20;;;2.60;;
13269;SDS011;6703;51.994;7.570;2023-09-18T08:02:59;7.25;;;2.10;;
13269;SDS011;6703;51.994;7.570;2023-09-18T08:05:28;9.75;;;2.53;;
13269;SDS011;6703;51.994;7.570;2023-09-18T08:07:58;10.27;;;2.47;;
13269;SDS011;6703;51.994;7.570;2023-09-18T08:10:27;10.90;;;2.33;;
13269;SDS011;6703;51.994;7.570;2023-09-18T08:12:55;7.60;;;1.95;;
13269;SDS011;6703;51.994;7.570;2023-09-18T08:15:22;7.63;;;2.30;;
13269;SDS011;6703;51.994;7.570;2023-09-18T08:17:50;8.45;;;1.92;;
13269;SDS011;6703;51.994;7.570;2023-09-18T08:20:20;9.73;;;1.80;;
13269;SDS011;6703;51.994;7.570;2023-09-18T08:22:47;8.43;;;2.20;;
13269;SDS011;6703;51.994;7.570;2023-09-18T08:25:16;11.88;;;2.30;;
13269;SDS011;6703;51.994;7.570;2023-09-18T08:27:46;7.18;;;2.33;;
13269;SDS011;6703;51.994;7.570;2023-09-18T08:30:14;6.68;;;1.50;;
13269;SDS011;6703;51.994;7.570;2023-09-18T08:32:43;5.95;;;1.40;;
13269;SDS011;6703;51.994;7.570;2023-09-18T08:35:11;5.18;;;1.80;;
13269;SDS011;6703;51.994;7.570;2023-09-18T08:37:40;7.10;;;1.92;;
13269;SDS011;6703;51.994;7.570;2023-09-18T08:40:09;4.90;;;1.70;;
13269;SDS011;6703;51.994;7.570;2023-09-18T08:42:38;8.95;;;2.55;;
13269;SDS011;6703;51.994;7.570;2023-09-18T08:45:09;6.35;;;1.80;;
13269;SDS011;6703;51.994;7.570;2023-09-18T08:50:42;7.47;;;1.83;;
13269;SDS011;6703;51.994;7.570;2023-09-18T08:53:10;6.40;;;1.95;;
13269;SDS011;6703;51.994;7.570;2023-09-18T08:55:38;9.32;;;1.90;;
13269;SDS011;6703;51.994;7.570;2023-09-18T08:58:07;8.05;;;1.95;;
13269;SDS011;6703;51.994;7.570;2023-09-18T09:00:37;8.07;;;1.90;;
13269;SDS011;6703;51.994;7.570;2023-09-18T09:03:05;6.18;;;1.98;;
13269;SDS011;6703;51.994;7.570;2023-09-18T09:05:33;11.17;;;2.03;;
13269;SDS011;6703;51.994;7.570;2023-09-18T09:08:01;7.53;;;1.88;;
13269;SDS011;6703;51.994;7.570;2023-09-18T09:10:29;5.10;;;1.58;;
13269;SDS011;6703;51.994;7.570;2023-09-18T09:13:14;8.27;;;1.77;;
13269;SDS011;6703;51.994;7.570;2023-09-18T09:16:04;6.10;;;1.53;;
13269;SDS011;6703;51.994;7.570;2023-09-18T09:18:32;7.43;;;1.80;;
13269;SDS011;6703;51.994;7.570;2023-09-18T09:21:01;3.95;;;1.42;;
13269;SDS011;6703;51.994;7.570;2023-09-18T09:23:44;5.72;;;1.65;;
13269;SDS011;6703;51.994;7.570;2023-09-18T09:26:16;7.38;;;1.77;;
13269;SDS011;6703;51.994;7.570;2023-09-18T09:28:44;4.60;;;1.50;;
13269;SDS011;6703;51.994;7.570;2023-09-18T09:31:15;8.33;;;1.60;;
13269;SDS011;6703;51.994;7.570;2023-09-18T09:33:51;5.47;;;1.70;;
13269;SDS011;6703;51.994;7.570;2023-09-18T09:36:20;6.97;;;1.80;;
13269;SDS011;6703;51.994;7.570;2023-09-18T09:38:48;5.78;;;1.70;;
13269;SDS011;6703;51.994;7.570;2023-09-18T09:41:16;7.95;;;1.63;;
13269;SDS011;6703;51.994;7.570;2023-09-18T09:43:44;5.95;;;1.65;;
13269;SDS011;6703;51.994;7.570;2023-09-18T09:46:16;4.28;;;1.55;;
13269;SDS011;6703;51.994;7.570;2023-09-18T09:48:57;9.35;;;1.45;;
13269;SDS011;6703;51.994;7.570;2023-09-18T09:51:27;4.82;;;1.40;;
13269;SDS011;6703;51.994;7.570;2023-09-18T09:53:55;6.55;;;1.48;;
13269;SDS011;6703;51.994;7.570;2023-09-18T09:56:44;5.03;;;1.60;;
13269;SDS011;6703;51.994;7.570;2023-09-18T09:59:14;4.25;;;1.40;;
13269;SDS011;6703;51.994;7.570;2023-09-18T10:01:46;6.25;;;1.55;;
13269;SDS011;6703;51.994;7.570;2023-09-18T10:04:16;4.07;;;1.33;;
13269;SDS011;6703;51.994;7.570;2023-09-18T10:06:45;5.87;;;1.47;;
13269;SDS011;6703;51.994;7.570;2023-09-18T10:09:17;5.30;;;1.75;;
13269;SDS011;6703;51.994;7.570;2023-09-18T10:11:48;7.07;;;1.60;;
13269;SDS011;6703;51.994;7.570;2023-09-18T10:14:19;6.05;;;1.70;;
13269;SDS011;6703;51.994;7.570;2023-09-18T10:16:51;4.30;;;1.23;;
13269;SDS011;6703;51.994;7.570;2023-09-18T10:19:23;6.28;;;1.33;;
13269;SDS011;6703;51.994;7.570;2023-09-18T10:21:57;5.00;;;1.30;;
13269;SDS011;6703;51.994;7.570;2023-09-18T10:24:33;4.95;;;1.30;;
13269;SDS011;6703;51.994;7.570;2023-09-18T10:27:03;6.45;;;1.33;;
13269;SDS011;6703;51.994;7.570;2023-09-18T10:29:32;2.35;;;1.55;;
13269;SDS011;6703;51.994;7.570;2023-09-18T10:32:03;3.15;;;1.25;;
13269;SDS011;6703;51.994;7.570;2023-09-18T10:34:34;4.80;;;1.50;;
13269;SDS011;6703;51.994;7.570;2023-09-18T10:37:03;4.13;;;1.55;;
13269;SDS011;6703;51.994;7.570;2023-09-18T10:39:34;2.20;;;1.20;;
13269;SDS011;6703;51.994;7.570;2023-09-18T10:42:04;5.03;;;1.15;;
13269;SDS011;6703;51.994;7.570;2023-09-18T10:44:34;3.33;;;1.10;;
13269;SDS011;6703;51.994;7.570;2023-09-18T10:47:04;3.20;;;1.10;;
13269;SDS011;6703;51.994;7.570;2023-09-18T10:49:33;4.33;;;1.33;;
13269;SDS011;6703;51.994;7.570;2023-09-18T10:52:01;2.60;;;1.10;;
13269;SDS011;6703;51.994;7.570;2023-09-18T10:54:30;4.65;;;1.45;;
13269;SDS011;6703;51.994;7.570;2023-09-18T10:56:59;6.47;;;1.40;;
13269;SDS011;6703;51.994;7.570;2023-09-18T10:59:28;4.77;;;1.40;;
13269;SDS011;6703;51.994;7.570;2023-09-18T11:02:00;3.65;;;1.20;;
13269;SDS011;6703;51.994;7.570;2023-09-18T11:04:32;2.53;;;1.10;;
13269;SDS011;6703;51.994;7.570;2023-09-18T11:07:03;2.92;;;0.90;;
13269;SDS011;6703;51.994;7.570;2023-09-18T11:09:42;4.20;;;1.20;;
13269;SDS011;6703;51.994;7.570;2023-09-18T11:12:11;1.35;;;0.80;;
13269;SDS011;6703;51.994;7.570;2023-09-18T11:14:43;2.67;;;1.27;;
13269;SDS011;6703;51.994;7.570;2023-09-18T11:17:33;5.50;;;1.20;;
13269;SDS011;6703;51.994;7.570;2023-09-18T11:20:06;3.60;;;1.00;;
13269;SDS011;6703;51.994;7.570;2023-09-18T11:22:38;5.20;;;1.40;;
13269;SDS011;6703;51.994;7.570;2023-09-18T11:28:03;3.65;;;0.90;;
13269;SDS011;6703;51.994;7.570;2023-09-18T11:30:34;3.60;;;0.97;;
13269;SDS011;6703;51.994;7.570;2023-09-18T11:33:05;2.03;;;0.83;;
13269;SDS011;6703;51.994;7.570;2023-09-18T11:35:35;2.95;;;1.00;;
13269;SDS011;6703;51.994;7.570;2023-09-18T11:38:04;5.40;;;1.30;;
13269;SDS011;6703;51.994;7.570;2023-09-18T11:40:34;4.82;;;1.10;;
13269;SDS011;6703;51.994;7.570;2023-09-18T11:43:21;2.45;;;0.75;;
13269;SDS011;6703;51.994;7.570;2023-09-18T11:45:57;6.30;;;1.10;;
13269;SDS011;6703;51.994;7.570;2023-09-18T11:48:27;3.67;;;1.02;;
13269;SDS011;6703;51.994;7.570;2023-09-18T11:50:56;8.55;;;1.20;;
13269;SDS011;6703;51.994;7.570;2023-09-18T11:53:26;4.03;;;1.02;;
13269;SDS011;6703;51.994;7.570;2023-09-18T11:55:54;2.33;;;0.80;;
13269;SDS011;6703;51.994;7.570;2023-09-18T11:58:22;4.25;;;1.20;;
13269;SDS011;6703;51.994;7.570;2023-09-18T12:00:50;3.57;;;0.90;;
13269;SDS011;6703;51.994;7.570;2023-09-18T12:03:21;6.53;;;1.00;;
13269;SDS011;6703;51.994;7.570;2023-09-18T12:05:55;3.57;;;0.80;;
13269;SDS011;6703;51.994;7.570;2023-09-18T12:08:24;6.88;;;1.45;;
13269;SDS011;6703;51.994;7.570;2023-09-18T12:10:54;3.63;;;1.10;;
13269;SDS011;6703;51.994;7.570;2023-09-18T12:13:23;4.70;;;1.10;;
13269;SDS011;6703;51.994;7.570;2023-09-18T12:15:55;4.20;;;0.90;;
13269;SDS011;6703;51.994;7.570;2023-09-18T12:18:25;5.10;;;1.40;;
13269;SDS011;6703;51.994;7.570;2023-09-18T12:20:57;5.23;;;1.13;;
13269;SDS011;6703;51.994;7.570;2023-09-18T12:23:26;3.28;;;1.30;;
13269;SDS011;6703;51.994;7.570;2023-09-18T12:25:58;4.28;;;1.20;;
13269;SDS011;6703;51.994;7.570;2023-09-18T12:28:27;3.22;;;1.10;;
13269;SDS011;6703;51.994;7.570;2023-09-18T12:30:56;5.22;;;1.42;;
13269;SDS011;6703;51.994;7.570;2023-09-18T12:33:25;3.77;;;1.07;;
13269;SDS011;6703;51.994;7.570;2023-09-18T12:35:53;5.63;;;1.40;;
13269;SDS011;6703;51.994;7.570;2023-09-18T12:38:22;5.53;;;1.40;;
13269;SDS011;6703;51.994;7.570;2023-09-18T12:40:53;4.07;;;1.33;;
13269;SDS011;6703;51.994;7.570;2023-09-18T12:43:21;3.42;;;1.20;;
13269;SDS011;6703;51.994;7.570;2023-09-18T12:45:50;5.03;;;1.23;;
13269;SDS011;6703;51.994;7.570;2023-09-18T12:48:19;4.75;;;1.20;;
13269;SDS011;6703;51.994;7.570;2023-09-18T12:50:51;3.05;;;1.13;;
13269;SDS011;6703;51.994;7.570;2023-09-18T12:53:22;6.53;;;1.30;;
13269;SDS011;6703;51.994;7.570;2023-09-18T12:55:50;4.60;;;1.00;;
13269;SDS011;6703;51.994;7.570;2023-09-18T12:58:19;3.25;;;1.45;;
13269;SDS011;6703;51.994;7.570;2023-09-18T13:00:47;4.40;;;1.48;;
13269;SDS011;6703;51.994;7.570;2023-09-18T13:03:17;3.22;;;1.48;;
13269;SDS011;6703;51.994;7.570;2023-09-18T13:05:45;4.77;;;1.37;;
13269;SDS011;6703;51.994;7.570;2023-09-18T13:08:15;2.50;;;1.27;;
13269;SDS011;6703;51.994;7.570;2023-09-18T13:10:44;4.77;;;1.30;;
13269;SDS011;6703;51.994;7.570;2023-09-18T13:13:16;4.00;;;1.40;;
13269;SDS011;6703;51.994;7.570;2023-09-18T13:15:45;5.20;;;1.95;;
13269;SDS011;6703;51.994;7.570;2023-09-18T13:18:14;3.40;;;1.20;;
13269;SDS011;6703;51.994;7.570;2023-09-18T13:20:46;5.85;;;1.30;;
13269;SDS011;6703;51.994;7.570;2023-09-18T13:23:14;6.45;;;1.63;;
13269;SDS011;6703;51.994;7.570;2023-09-18T13:25:49;3.30;;;1.07;;
13269;SDS011;6703;51.994;7.570;2023-09-18T13:28:17;3.20;;;1.40;;
13269;SDS011;6703;51.994;7.570;2023-09-18T13:30:47;6.63;;;1.75;;
13269;SDS011;6703;51.994;7.570;2023-09-18T13:33:16;6.30;;;1.35;;
13269;SDS011;6703;51.994;7.570;2023-09-18T13:35:46;5.95;;;1.20;;
13269;SDS011;6703;51.994;7.570;2023-09-18T13:38:14;6.15;;;1.60;;
13269;SDS011;6703;51.994;7.570;2023-09-18T13:40:42;4.93;;;1.20;;
13269;SDS011;6703;51.994;7.570;2023-09-18T13:43:13;4.97;;;1.40;;
13269;SDS011;6703;51.994;7.570;2023-09-18T13:45:42;5.13;;;1.40;;
13269;SDS011;6703;51.994;7.570;2023-09-18T13:48:09;3.20;;;1.40;;
13269;SDS011;6703;51.994;7.570;2023-09-18T13:50:37;4.85;;;1.60;;
13269;SDS011;6703;51.994;7.570;2023-09-18T13:53:05;4.38;;;1.90;;
13269;SDS011;6703;51.994;7.570;2023-09-18T13:55:34;5.90;;;1.30;;
13269;SDS011;6703;51.994;7.570;2023-09-18T13:58:02;5.72;;;1.23;;
13269;SDS011;6703;51.994;7.570;2023-09-18T14:00:32;4.18;;;1.33;;
13269;SDS011;6703;51.994;7.570;2023-09-18T14:05:50;4.43;;;1.30;;
13269;SDS011;6703;51.994;7.570;2023-09-18T14:08:18;5.15;;;1.55;;
13269;SDS011;6703;51.994;7.570;2023-09-18T14:10:46;4.82;;;1.33;;
13269;SDS011;6703;51.994;7.570;2023-09-18T14:13:14;5.30;;;1.60;;
13269;SDS011;6703;51.994;7.570;2023-09-18T14:15:43;2.67;;;1.25;;
13269;SDS011;6703;51.994;7.570;2023-09-18T14:18:18;2.65;;;1.20;;
13269;SDS011;6703;51.994;7.570;2023-09-18T14:20:45;7.38;;;1.40;;
13269;SDS011;6703;51.994;7.570;2023-09-18T14:23:13;4.75;;;1.70;;
13269;SDS011;6703;51.994;7.570;2023-09-18T14:25:41;4.73;;;1.40;;
13269;SDS011;6703;51.994;7.570;2023-09-18T14:28:09;3.58;;;1.50;;
13269;SDS011;6703;51.994;7.570;2023-09-18T14:30:36;5.45;;;1.40;;
13269;SDS011;6703;51.994;7.570;2023-09-18T14:33:06;8.10;;;2.00;;
13269;SDS011;6703;51.994;7.570;2023-09-18T14:35:35;5.50;;;1.40;;
13269;SDS011;6703;51.994;7.570;2023-09-18T14:38:03;4.00;;;1.23;;
13269;SDS011;6703;51.994;7.570;2023-09-18T14:40:33;4.72;;;1.40;;
13269;SDS011;6703;51.994;7.570;2023-09-18T14:43:01;9.52;;;1.60;;
13269;SDS011;6703;51.994;7.570;2023-09-18T14:45:31;5.72;;;2.10;;
13269;SDS011;6703;51.994;7.570;2023-09-18T14:48:01;6.75;;;1.50;;
13269;SDS011;6703;51.994;7.570;2023-09-18T14:50:30;4.37;;;1.40;;
13269;SDS011;6703;51.994;7.570;2023-09-18T14:52:58;1.85;;;1.20;;
13269;SDS011;6703;51.994;7.570;2023-09-18T14:55:26;4.10;;;1.15;;
13269;SDS011;6703;51.994;7.570;2023-09-18T14:57:54;2.88;;;1.30;;
13269;SDS011;6703;51.994;7.570;2023-09-18T15:00:22;3.03;;;0.97;;
13269;SDS011;6703;51.994;7.570;2023-09-18T15:02:54;2.63;;;1.20;;
13269;SDS011;6703;51.994;7.570;2023-09-18T15:05:26;2.47;;;1.30;;
13269;SDS011;6703;51.994;7.570;2023-09-18T15:08:00;3.23;;;1.20;;
13269;SDS011;6703;51.994;7.570;2023-09-18T15:10:28;3.20;;;1.38;;
13269;SDS011;6703;51.994;7.570;2023-09-18T15:12:56;5.75;;;1.20;;
13269;SDS011;6703;51.994;7.570;2023-09-18T15:15:24;2.95;;;1.15;;
13269;SDS011;6703;51.994;7.570;2023-09-18T15:17:51;4.90;;;1.05;;